sensor_id;sensor_type;location;lat;lon;timestamp;temperature;humidity
12335;DHT22;6233;51.560;9.986;2022-10-22T00:02:49;13.70;99.90
12335;DHT22;6233;51.560;9.986;2022-10-22T00:05:51;13.70;99.90
12335;DHT22;6233;51.560;9.986;2022-10-22T00:08:52;13.70;99.90
12335;DHT22;6233;51.560;9.986;2022-10-22T00:11:54;13.60;99.90
12335;DHT22;6233;51.560;9.986;2022-10-22T00:14:56;13.70;99.90
12335;DHT22;6233;51.560;9.986;2022-10-22T00:17:57;13.60;99.90
12335;DHT22;6233;51.560;9.986;2022-10-22T00:20:59;13.70;99.90
12335;DHT22;6233;51.560;9.986;2022-10-22T00:24:01;13.60;99.90
12335;DHT22;6233;51.560;9.986;2022-10-22T00:27:03;13.70;99.90
12335;DHT22;6233;51.560;9.986;2022-10-22T00:30:05;13.70;99.90
12335;DHT22;6233;51.560;9.986;2022-10-22T00:33:07;13.60;99.90
12335;DHT22;6233;51.560;9.986;2022-10-22T00:36:09;13.50;99.90
12335;DHT22;6233;51.560;9.986;2022-10-22T00:39:11;13.60;99.90
12335;DHT22;6233;51.560;9.986;2022-10-22T00:42:19;13.50;99.90
12335;DHT22;6233;51.560;9.986;2022-10-22T00:45:26;13.50;99.90
12335;DHT22;6233;51.560;9.986;2022-10-22T00:48:30;13.60;99.90
12335;DHT22;6233;51.560;9.986;2022-10-22T00:51:34;13.50;99.90
12335;DHT22;6233;51.560;9.986;2022-10-22T00:54:37;13.50;99.90
12335;DHT22;6233;51.560;9.986;2022-10-22T00:57:40;13.60;99.90
12335;DHT22;6233;51.560;9.986;2022-10-22T01:00:42;13.60;99.90
12335;DHT22;6233;51.560;9.986;2022-10-22T01:03:44;13.60;99.90
12335;DHT22;6233;51.560;9.986;2022-10-22T01:06:49;13.50;99.90
12335;DHT22;6233;51.560;9.986;2022-10-22T01:17:06;13.60;99.90
12335;DHT22;6233;51.560;9.986;2022-10-22T01:30:07;13.60;99.90
12335;DHT22;6233;51.560;9.986;2022-10-22T01:33:12;13.50;99.90
12335;DHT22;6233;51.560;9.986;2022-10-22T01:36:14;13.50;99.90
12335;DHT22;6233;51.560;9.986;2022-10-22T01:39:18;13.50;99.90
12335;DHT22;6233;51.560;9.986;2022-10-22T01:42:20;13.50;99.90
12335;DHT22;6233;51.560;9.986;2022-10-22T01:45:22;13.50;99.90
12335;DHT22;6233;51.560;9.986;2022-10-22T01:48:52;13.50;99.90
12335;DHT22;6233;51.560;9.986;2022-10-22T01:59:07;13.30;99.90
12335;DHT22;6233;51.560;9.986;2022-10-22T02:05:44;13.30;99.90
12335;DHT22;6233;51.560;9.986;2022-10-22T02:08:49;13.40;99.90
12335;DHT22;6233;51.560;9.986;2022-10-22T02:11:53;13.40;99.90
12335;DHT22;6233;51.560;9.986;2022-10-22T02:14:56;13.50;99.90
12335;DHT22;6233;51.560;9.986;2022-10-22T02:17:59;13.50;99.90
12335;DHT22;6233;51.560;9.986;2022-10-22T02:21:02;13.50;99.90
12335;DHT22;6233;51.560;9.986;2022-10-22T02:24:04;13.50;99.90
12335;DHT22;6233;51.560;9.986;2022-10-22T02:27:20;13.50;99.90
12335;DHT22;6233;51.560;9.986;2022-10-22T02:30:27;13.50;99.90
12335;DHT22;6233;51.560;9.986;2022-10-22T02:33:32;13.50;99.90
12335;DHT22;6233;51.560;9.986;2022-10-22T02:36:36;13.50;99.90
12335;DHT22;6233;51.560;9.986;2022-10-22T02:39:38;13.50;99.90
12335;DHT22;6233;51.560;9.986;2022-10-22T02:42:41;13.40;99.90
12335;DHT22;6233;51.560;9.986;2022-10-22T02:45:44;13.40;99.90
12335;DHT22;6233;51.560;9.986;2022-10-22T02:48:46;13.50;99.90
12335;DHT22;6233;51.560;9.986;2022-10-22T02:51:50;13.40;99.90
12335;DHT22;6233;51.560;9.986;2022-10-22T02:54:52;13.50;99.90
12335;DHT22;6233;51.560;9.986;2022-10-22T02:57:53;13.50;99.90
12335;DHT22;6233;51.560;9.986;2022-10-22T03:00:55;13.50;99.90
12335;DHT22;6233;51.560;9.986;2022-10-22T03:03:57;13.40;99.90
12335;DHT22;6233;51.560;9.986;2022-10-22T03:06:58;13.40;99.90
12335;DHT22;6233;51.560;9.986;2022-10-22T03:10:00;13.40;99.90
12335;DHT22;6233;51.560;9.986;2022-10-22T03:13:02;13.40;99.90
12335;DHT22;6233;51.560;9.986;2022-10-22T03:16:04;13.40;99.90
12335;DHT22;6233;51.560;9.986;2022-10-22T03:19:06;13.40;99.90
12335;DHT22;6233;51.560;9.986;2022-10-22T03:22:29;13.30;99.90
12335;DHT22;6233;51.560;9.986;2022-10-22T03:25:33;13.30;99.90
12335;DHT22;6233;51.560;9.986;2022-10-22T03:28:36;13.30;99.90
12335;DHT22;6233;51.560;9.986;2022-10-22T03:31:38;13.30;99.90
12335;DHT22;6233;51.560;9.986;2022-10-22T03:34:40;13.30;99.90
12335;DHT22;6233;51.560;9.986;2022-10-22T03:37:42;13.30;99.90
12335;DHT22;6233;51.560;9.986;2022-10-22T03:40:45;13.20;99.90
12335;DHT22;6233;51.560;9.986;2022-10-22T03:43:47;13.30;99.90
12335;DHT22;6233;51.560;9.986;2022-10-22T03:46:53;13.20;99.90
12335;DHT22;6233;51.560;9.986;2022-10-22T03:50:00;13.20;99.90
12335;DHT22;6233;51.560;9.986;2022-10-22T03:53:03;13.20;99.90
12335;DHT22;6233;51.560;9.986;2022-10-22T03:56:09;13.20;99.90
12335;DHT22;6233;51.560;9.986;2022-10-22T03:59:11;13.20;99.90
12335;DHT22;6233;51.560;9.986;2022-10-22T04:02:13;13.20;99.90
12335;DHT22;6233;51.560;9.986;2022-10-22T04:05:15;13.30;99.90
12335;DHT22;6233;51.560;9.986;2022-10-22T04:08:17;13.30;99.90
12335;DHT22;6233;51.560;9.986;2022-10-22T04:11:18;13.20;99.90
12335;DHT22;6233;51.560;9.986;2022-10-22T04:14:20;13.20;99.90
12335;DHT22;6233;51.560;9.986;2022-10-22T04:17:22;13.20;99.90
12335;DHT22;6233;51.560;9.986;2022-10-22T04:20:23;13.20;99.90
12335;DHT22;6233;51.560;9.986;2022-10-22T04:23:25;13.20;99.90
12335;DHT22;6233;51.560;9.986;2022-10-22T04:26:27;13.20;99.90
12335;DHT22;6233;51.560;9.986;2022-10-22T04:29:28;13.20;99.90
12335;DHT22;6233;51.560;9.986;2022-10-22T04:32:32;13.20;99.90
12335;DHT22;6233;51.560;9.986;2022-10-22T04:35:37;13.20;99.90
12335;DHT22;6233;51.560;9.986;2022-10-22T04:38:41;13.20;99.90
12335;DHT22;6233;51.560;9.986;2022-10-22T04:41:43;13.30;99.90
12335;DHT22;6233;51.560;9.986;2022-10-22T04:44:45;13.20;99.90
12335;DHT22;6233;51.560;9.986;2022-10-22T04:47:46;13.30;99.90
12335;DHT22;6233;51.560;9.986;2022-10-22T04:50:51;13.20;99.90
12335;DHT22;6233;51.560;9.986;2022-10-22T04:53:53;13.20;99.90
12335;DHT22;6233;51.560;9.986;2022-10-22T04:56:55;13.20;99.90
12335;DHT22;6233;51.560;9.986;2022-10-22T04:59:56;13.30;99.90
12335;DHT22;6233;51.560;9.986;2022-10-22T05:03:03;13.30;99.90
12335;DHT22;6233;51.560;9.986;2022-10-22T05:06:05;13.20;99.90
12335;DHT22;6233;51.560;9.986;2022-10-22T05:09:11;13.20;99.90
12335;DHT22;6233;51.560;9.986;2022-10-22T05:12:13;13.30;99.90
12335;DHT22;6233;51.560;9.986;2022-10-22T05:15:15;13.30;99.90
12335;DHT22;6233;51.560;9.986;2022-10-22T05:18:16;13.30;99.90
12335;DHT22;6233;51.560;9.986;2022-10-22T05:21:23;13.30;99.90
12335;DHT22;6233;51.560;9.986;2022-10-22T05:24:26;13.30;99.90
12335;DHT22;6233;51.560;9.986;2022-10-22T05:27:28;13.30;99.90
12335;DHT22;6233;51.560;9.986;2022-10-22T05:30:29;13.20;99.90
12335;DHT22;6233;51.560;9.986;2022-10-22T05:33:32;13.20;99.90
12335;DHT22;6233;51.560;9.986;2022-10-22T05:36:34;13.20;99.90
12335;DHT22;6233;51.560;9.986;2022-10-22T05:39:35;13.20;99.90
12335;DHT22;6233;51.560;9.986;2022-10-22T05:42:40;13.20;99.90
12335;DHT22;6233;51.560;9.986;2022-10-22T05:45:42;13.10;99.90
12335;DHT22;6233;51.560;9.986;2022-10-22T05:48:48;13.20;99.90
12335;DHT22;6233;51.560;9.986;2022-10-22T05:51:50;13.20;99.90
12335;DHT22;6233;51.560;9.986;2022-10-22T05:54:51;13.20;99.90
12335;DHT22;6233;51.560;9.986;2022-10-22T05:57:53;13.20;99.90
12335;DHT22;6233;51.560;9.986;2022-10-22T06:01:00;13.20;99.90
12335;DHT22;6233;51.560;9.986;2022-10-22T06:04:05;13.10;99.90
12335;DHT22;6233;51.560;9.986;2022-10-22T06:07:09;13.20;99.90
12335;DHT22;6233;51.560;9.986;2022-10-22T06:10:16;13.20;99.90
12335;DHT22;6233;51.560;9.986;2022-10-22T06:13:18;13.20;99.90
12335;DHT22;6233;51.560;9.986;2022-10-22T06:16:20;13.20;99.90
12335;DHT22;6233;51.560;9.986;2022-10-22T06:19:22;13.20;99.90
12335;DHT22;6233;51.560;9.986;2022-10-22T06:22:27;13.20;99.90
12335;DHT22;6233;51.560;9.986;2022-10-22T06:25:28;13.20;99.90
12335;DHT22;6233;51.560;9.986;2022-10-22T06:28:30;13.20;99.90
12335;DHT22;6233;51.560;9.986;2022-10-22T06:31:33;13.20;99.90
12335;DHT22;6233;51.560;9.986;2022-10-22T06:34:37;13.10;99.90
12335;DHT22;6233;51.560;9.986;2022-10-22T06:37:39;13.20;99.90
12335;DHT22;6233;51.560;9.986;2022-10-22T06:40:40;13.20;99.90
12335;DHT22;6233;51.560;9.986;2022-10-22T06:43:45;13.10;99.90
12335;DHT22;6233;51.560;9.986;2022-10-22T06:46:51;13.20;99.90
12335;DHT22;6233;51.560;9.986;2022-10-22T06:49:53;13.20;99.90
12335;DHT22;6233;51.560;9.986;2022-10-22T06:52:56;13.20;99.90
12335;DHT22;6233;51.560;9.986;2022-10-22T06:55:58;13.20;99.90
12335;DHT22;6233;51.560;9.986;2022-10-22T06:58:59;13.20;99.90
12335;DHT22;6233;51.560;9.986;2022-10-22T07:02:01;13.20;99.90
12335;DHT22;6233;51.560;9.986;2022-10-22T07:05:05;13.20;99.90
12335;DHT22;6233;51.560;9.986;2022-10-22T07:08:07;13.30;99.90
12335;DHT22;6233;51.560;9.986;2022-10-22T07:14:14;13.30;99.90
12335;DHT22;6233;51.560;9.986;2022-10-22T07:17:16;13.40;99.90
12335;DHT22;6233;51.560;9.986;2022-10-22T07:20:18;13.40;99.90
12335;DHT22;6233;51.560;9.986;2022-10-22T07:23:21;13.40;99.90
12335;DHT22;6233;51.560;9.986;2022-10-22T07:26:23;13.40;99.90
12335;DHT22;6233;51.560;9.986;2022-10-22T07:29:25;13.50;99.90
12335;DHT22;6233;51.560;9.986;2022-10-22T07:32:27;13.40;99.90
12335;DHT22;6233;51.560;9.986;2022-10-22T07:35:29;13.50;99.90
12335;DHT22;6233;51.560;9.986;2022-10-22T07:38:31;13.60;99.90
12335;DHT22;6233;51.560;9.986;2022-10-22T07:41:33;13.60;99.90
12335;DHT22;6233;51.560;9.986;2022-10-22T07:44:41;13.70;99.90
12335;DHT22;6233;51.560;9.986;2022-10-22T07:47:42;13.70;99.90
12335;DHT22;6233;51.560;9.986;2022-10-22T07:50:44;13.80;99.90
12335;DHT22;6233;51.560;9.986;2022-10-22T07:53:46;14.00;99.90
12335;DHT22;6233;51.560;9.986;2022-10-22T07:56:48;14.20;99.90
12335;DHT22;6233;51.560;9.986;2022-10-22T07:59:50;14.40;99.90
12335;DHT22;6233;51.560;9.986;2022-10-22T08:02:51;14.80;99.90
12335;DHT22;6233;51.560;9.986;2022-10-22T08:05:54;15.00;99.90
12335;DHT22;6233;51.560;9.986;2022-10-22T08:12:53;15.40;99.90
12335;DHT22;6233;51.560;9.986;2022-10-22T08:15:55;15.50;99.90
12335;DHT22;6233;51.560;9.986;2022-10-22T08:18:58;15.50;99.90
12335;DHT22;6233;51.560;9.986;2022-10-22T08:22:00;15.60;99.90
12335;DHT22;6233;51.560;9.986;2022-10-22T08:25:02;15.80;99.90
12335;DHT22;6233;51.560;9.986;2022-10-22T08:28:04;16.10;99.90
12335;DHT22;6233;51.560;9.986;2022-10-22T08:31:06;16.40;99.90
12335;DHT22;6233;51.560;9.986;2022-10-22T08:34:09;16.70;99.90
12335;DHT22;6233;51.560;9.986;2022-10-22T08:37:11;16.90;99.90
12335;DHT22;6233;51.560;9.986;2022-10-22T08:40:23;17.20;99.90
12335;DHT22;6233;51.560;9.986;2022-10-22T08:50:12;18.00;99.90
12335;DHT22;6233;51.560;9.986;2022-10-22T08:53:19;18.20;99.90
12335;DHT22;6233;51.560;9.986;2022-10-22T08:56:22;18.20;99.90
12335;DHT22;6233;51.560;9.986;2022-10-22T09:07:19;18.50;99.90
12335;DHT22;6233;51.560;9.986;2022-10-22T09:10:24;18.60;99.90
12335;DHT22;6233;51.560;9.986;2022-10-22T09:13:28;18.70;99.90
12335;DHT22;6233;51.560;9.986;2022-10-22T09:16:37;18.90;99.90
12335;DHT22;6233;51.560;9.986;2022-10-22T09:26:01;18.80;99.90
12335;DHT22;6233;51.560;9.986;2022-10-22T09:29:04;18.80;99.90
12335;DHT22;6233;51.560;9.986;2022-10-22T09:32:06;18.60;99.90
12335;DHT22;6233;51.560;9.986;2022-10-22T09:35:10;18.40;99.90
12335;DHT22;6233;51.560;9.986;2022-10-22T09:38:14;18.20;99.90
12335;DHT22;6233;51.560;9.986;2022-10-22T09:41:18;18.20;99.90
12335;DHT22;6233;51.560;9.986;2022-10-22T09:44:20;18.20;99.90
12335;DHT22;6233;51.560;9.986;2022-10-22T09:47:31;18.00;99.90
12335;DHT22;6233;51.560;9.986;2022-10-22T09:54:15;17.60;99.90
12335;DHT22;6233;51.560;9.986;2022-10-22T09:57:21;17.60;99.90
12335;DHT22;6233;51.560;9.986;2022-10-22T10:00:23;17.50;99.90
12335;DHT22;6233;51.560;9.986;2022-10-22T10:03:28;17.50;99.90
12335;DHT22;6233;51.560;9.986;2022-10-22T10:06:33;17.40;99.90
12335;DHT22;6233;51.560;9.986;2022-10-22T10:09:35;17.30;99.90
12335;DHT22;6233;51.560;9.986;2022-10-22T10:12:50;17.20;99.90
12335;DHT22;6233;51.560;9.986;2022-10-22T10:30:15;17.20;99.90
12335;DHT22;6233;51.560;9.986;2022-10-22T10:33:32;17.30;99.90
12335;DHT22;6233;51.560;9.986;2022-10-22T10:37:03;17.30;99.90
12335;DHT22;6233;51.560;9.986;2022-10-22T10:40:27;17.30;99.90
12335;DHT22;6233;51.560;9.986;2022-10-22T10:44:16;17.30;99.90
12335;DHT22;6233;51.560;9.986;2022-10-22T10:50:50;17.10;99.90
12335;DHT22;6233;51.560;9.986;2022-10-22T10:57:19;17.00;99.90
12335;DHT22;6233;51.560;9.986;2022-10-22T11:00:22;16.90;99.90
12335;DHT22;6233;51.560;9.986;2022-10-22T11:03:46;16.90;99.90
12335;DHT22;6233;51.560;9.986;2022-10-22T11:07:12;17.10;99.90
12335;DHT22;6233;51.560;9.986;2022-10-22T11:10:47;17.20;99.90
12335;DHT22;6233;51.560;9.986;2022-10-22T11:17:13;17.30;99.90
12335;DHT22;6233;51.560;9.986;2022-10-22T11:20:21;17.30;99.90
12335;DHT22;6233;51.560;9.986;2022-10-22T11:23:34;17.40;99.90
12335;DHT22;6233;51.560;9.986;2022-10-22T11:26:44;17.40;99.90
12335;DHT22;6233;51.560;9.986;2022-10-22T11:29:53;17.30;99.90
12335;DHT22;6233;51.560;9.986;2022-10-22T11:32:59;17.30;99.90
12335;DHT22;6233;51.560;9.986;2022-10-22T11:36:03;17.30;99.90
12335;DHT22;6233;51.560;9.986;2022-10-22T11:39:05;17.30;99.90
12335;DHT22;6233;51.560;9.986;2022-10-22T11:42:19;17.30;99.90
12335;DHT22;6233;51.560;9.986;2022-10-22T11:45:26;17.30;99.90
12335;DHT22;6233;51.560;9.986;2022-10-22T11:48:35;17.20;99.90
12335;DHT22;6233;51.560;9.986;2022-10-22T11:51:39;17.20;99.90
12335;DHT22;6233;51.560;9.986;2022-10-22T11:54:43;17.20;99.90
12335;DHT22;6233;51.560;9.986;2022-10-22T11:57:46;17.20;99.90
12335;DHT22;6233;51.560;9.986;2022-10-22T12:00:48;17.20;99.90
12335;DHT22;6233;51.560;9.986;2022-10-22T12:04:14;17.20;99.90
12335;DHT22;6233;51.560;9.986;2022-10-22T12:07:40;17.40;99.90
12335;DHT22;6233;51.560;9.986;2022-10-22T12:14:31;17.30;99.90
12335;DHT22;6233;51.560;9.986;2022-10-22T12:17:35;17.20;99.90
12335;DHT22;6233;51.560;9.986;2022-10-22T12:20:36;17.30;99.90
12335;DHT22;6233;51.560;9.986;2022-10-22T12:23:38;17.40;99.90
12335;DHT22;6233;51.560;9.986;2022-10-22T12:26:40;17.30;99.90
12335;DHT22;6233;51.560;9.986;2022-10-22T12:29:42;17.30;99.90
12335;DHT22;6233;51.560;9.986;2022-10-22T12:32:44;17.30;99.90
12335;DHT22;6233;51.560;9.986;2022-10-22T12:35:47;17.20;99.90
12335;DHT22;6233;51.560;9.986;2022-10-22T12:38:52;17.30;99.90
12335;DHT22;6233;51.560;9.986;2022-10-22T12:41:54;17.20;99.90
12335;DHT22;6233;51.560;9.986;2022-10-22T12:44:58;17.30;99.90
12335;DHT22;6233;51.560;9.986;2022-10-22T12:48:02;17.40;99.90
12335;DHT22;6233;51.560;9.986;2022-10-22T12:51:05;17.30;99.90
12335;DHT22;6233;51.560;9.986;2022-10-22T12:54:31;17.50;99.90
12335;DHT22;6233;51.560;9.986;2022-10-22T12:57:34;17.30;99.90
12335;DHT22;6233;51.560;9.986;2022-10-22T13:00:35;17.40;99.90
12335;DHT22;6233;51.560;9.986;2022-10-22T13:04:01;17.40;99.90
12335;DHT22;6233;51.560;9.986;2022-10-22T13:07:14;17.40;99.90
12335;DHT22;6233;51.560;9.986;2022-10-22T13:10:30;17.50;99.90
12335;DHT22;6233;51.560;9.986;2022-10-22T13:21:41;17.50;99.90
12335;DHT22;6233;51.560;9.986;2022-10-22T13:24:49;17.50;99.90
12335;DHT22;6233;51.560;9.986;2022-10-22T13:27:56;17.50;99.90
12335;DHT22;6233;51.560;9.986;2022-10-22T13:31:08;17.50;99.90
12335;DHT22;6233;51.560;9.986;2022-10-22T13:34:16;17.40;99.90
12335;DHT22;6233;51.560;9.986;2022-10-22T13:37:18;17.40;99.90
12335;DHT22;6233;51.560;9.986;2022-10-22T13:40:20;17.40;99.90
12335;DHT22;6233;51.560;9.986;2022-10-22T13:43:22;17.40;99.90
12335;DHT22;6233;51.560;9.986;2022-10-22T13:46:25;17.40;99.90
12335;DHT22;6233;51.560;9.986;2022-10-22T13:49:27;17.30;99.90
12335;DHT22;6233;51.560;9.986;2022-10-22T13:52:42;17.30;99.90
12335;DHT22;6233;51.560;9.986;2022-10-22T13:55:44;17.20;99.90
12335;DHT22;6233;51.560;9.986;2022-10-22T13:58:47;17.20;99.90
12335;DHT22;6233;51.560;9.986;2022-10-22T14:01:51;17.10;99.90
12335;DHT22;6233;51.560;9.986;2022-10-22T14:04:54;17.10;99.90
12335;DHT22;6233;51.560;9.986;2022-10-22T14:07:59;17.00;99.90
12335;DHT22;6233;51.560;9.986;2022-10-22T14:11:00;17.00;99.90
12335;DHT22;6233;51.560;9.986;2022-10-22T14:14:03;16.90;99.90
12335;DHT22;6233;51.560;9.986;2022-10-22T14:17:12;16.70;99.90
12335;DHT22;6233;51.560;9.986;2022-10-22T14:20:21;16.70;99.90
12335;DHT22;6233;51.560;9.986;2022-10-22T14:23:26;16.70;99.90
12335;DHT22;6233;51.560;9.986;2022-10-22T14:26:29;16.70;99.90
12335;DHT22;6233;51.560;9.986;2022-10-22T14:29:33;16.60;99.90
12335;DHT22;6233;51.560;9.986;2022-10-22T14:32:35;16.70;99.90
12335;DHT22;6233;51.560;9.986;2022-10-22T14:35:36;16.70;99.90
12335;DHT22;6233;51.560;9.986;2022-10-22T14:38:38;16.60;99.90
12335;DHT22;6233;51.560;9.986;2022-10-22T14:41:40;16.60;99.90
12335;DHT22;6233;51.560;9.986;2022-10-22T14:44:42;16.60;99.90
12335;DHT22;6233;51.560;9.986;2022-10-22T14:47:44;16.50;99.90
12335;DHT22;6233;51.560;9.986;2022-10-22T14:50:47;16.60;99.90
12335;DHT22;6233;51.560;9.986;2022-10-22T14:53:49;16.50;99.90
12335;DHT22;6233;51.560;9.986;2022-10-22T14:56:50;16.50;99.90
12335;DHT22;6233;51.560;9.986;2022-10-22T15:00:22;16.50;99.90
12335;DHT22;6233;51.560;9.986;2022-10-22T15:03:24;16.40;99.90
12335;DHT22;6233;51.560;9.986;2022-10-22T15:06:25;16.40;99.90
12335;DHT22;6233;51.560;9.986;2022-10-22T15:09:27;16.50;99.90
12335;DHT22;6233;51.560;9.986;2022-10-22T15:12:29;16.40;99.90
12335;DHT22;6233;51.560;9.986;2022-10-22T15:15:31;16.30;99.90
12335;DHT22;6233;51.560;9.986;2022-10-22T15:18:39;16.40;99.90
12335;DHT22;6233;51.560;9.986;2022-10-22T15:21:41;16.30;99.90
12335;DHT22;6233;51.560;9.986;2022-10-22T15:24:48;16.30;99.90
12335;DHT22;6233;51.560;9.986;2022-10-22T15:27:50;16.30;99.90
12335;DHT22;6233;51.560;9.986;2022-10-22T15:30:59;16.30;99.90
12335;DHT22;6233;51.560;9.986;2022-10-22T15:34:04;16.20;99.90
12335;DHT22;6233;51.560;9.986;2022-10-22T15:37:09;16.30;99.90
12335;DHT22;6233;51.560;9.986;2022-10-22T15:40:11;16.30;99.90
12335;DHT22;6233;51.560;9.986;2022-10-22T15:43:13;16.20;99.90
12335;DHT22;6233;51.560;9.986;2022-10-22T15:46:17;16.20;99.90
12335;DHT22;6233;51.560;9.986;2022-10-22T15:49:20;16.30;99.90
12335;DHT22;6233;51.560;9.986;2022-10-22T15:52:21;16.20;99.90
12335;DHT22;6233;51.560;9.986;2022-10-22T15:55:23;16.10;99.90
12335;DHT22;6233;51.560;9.986;2022-10-22T15:58:25;16.10;99.90
12335;DHT22;6233;51.560;9.986;2022-10-22T16:01:27;16.10;99.90
12335;DHT22;6233;51.560;9.986;2022-10-22T16:04:28;16.00;99.90
12335;DHT22;6233;51.560;9.986;2022-10-22T16:07:30;16.00;99.90
12335;DHT22;6233;51.560;9.986;2022-10-22T16:10:32;16.00;99.90
12335;DHT22;6233;51.560;9.986;2022-10-22T16:13:33;15.90;99.90
12335;DHT22;6233;51.560;9.986;2022-10-22T16:16:40;15.80;99.90
12335;DHT22;6233;51.560;9.986;2022-10-22T16:19:44;15.90;99.90
12335;DHT22;6233;51.560;9.986;2022-10-22T16:22:48;15.80;99.90
12335;DHT22;6233;51.560;9.986;2022-10-22T16:25:50;15.80;99.90
12335;DHT22;6233;51.560;9.986;2022-10-22T16:28:52;15.90;99.90
12335;DHT22;6233;51.560;9.986;2022-10-22T16:31:53;15.90;99.90
12335;DHT22;6233;51.560;9.986;2022-10-22T16:34:55;15.80;99.90
12335;DHT22;6233;51.560;9.986;2022-10-22T16:37:57;15.80;99.90
12335;DHT22;6233;51.560;9.986;2022-10-22T16:41:12;15.80;99.90
12335;DHT22;6233;51.560;9.986;2022-10-22T16:44:16;15.80;99.90
12335;DHT22;6233;51.560;9.986;2022-10-22T16:47:24;15.70;99.90
12335;DHT22;6233;51.560;9.986;2022-10-22T16:50:26;15.80;99.90
12335;DHT22;6233;51.560;9.986;2022-10-22T16:53:28;15.80;99.90
12335;DHT22;6233;51.560;9.986;2022-10-22T16:56:29;15.80;99.90
12335;DHT22;6233;51.560;9.986;2022-10-22T16:59:31;15.70;99.90
12335;DHT22;6233;51.560;9.986;2022-10-22T17:02:33;15.70;99.90
12335;DHT22;6233;51.560;9.986;2022-10-22T17:05:38;15.70;99.90
12335;DHT22;6233;51.560;9.986;2022-10-22T17:08:40;15.60;99.90
12335;DHT22;6233;51.560;9.986;2022-10-22T17:11:43;15.60;99.90
12335;DHT22;6233;51.560;9.986;2022-10-22T17:14:45;15.60;99.90
12335;DHT22;6233;51.560;9.986;2022-10-22T17:17:47;15.60;99.90
12335;DHT22;6233;51.560;9.986;2022-10-22T17:20:53;15.60;99.90
12335;DHT22;6233;51.560;9.986;2022-10-22T17:23:56;15.60;99.90
12335;DHT22;6233;51.560;9.986;2022-10-22T17:26:58;15.50;99.90
12335;DHT22;6233;51.560;9.986;2022-10-22T17:30:00;15.50;99.90
12335;DHT22;6233;51.560;9.986;2022-10-22T17:33:01;15.40;99.90
12335;DHT22;6233;51.560;9.986;2022-10-22T17:36:07;15.40;99.90
12335;DHT22;6233;51.560;9.986;2022-10-22T17:39:15;15.40;99.90
12335;DHT22;6233;51.560;9.986;2022-10-22T17:42:18;15.40;99.90
12335;DHT22;6233;51.560;9.986;2022-10-22T17:45:20;15.30;99.90
12335;DHT22;6233;51.560;9.986;2022-10-22T17:48:22;15.30;99.90
12335;DHT22;6233;51.560;9.986;2022-10-22T17:51:25;15.30;99.90
12335;DHT22;6233;51.560;9.986;2022-10-22T17:54:27;15.20;99.90
12335;DHT22;6233;51.560;9.986;2022-10-22T17:57:29;15.20;99.90
12335;DHT22;6233;51.560;9.986;2022-10-22T18:00:30;15.20;99.90
12335;DHT22;6233;51.560;9.986;2022-10-22T18:03:34;15.10;99.90
12335;DHT22;6233;51.560;9.986;2022-10-22T18:06:39;15.10;99.90
12335;DHT22;6233;51.560;9.986;2022-10-22T18:09:40;15.00;99.90
12335;DHT22;6233;51.560;9.986;2022-10-22T18:12:43;15.00;99.90
12335;DHT22;6233;51.560;9.986;2022-10-22T18:15:45;14.90;99.90
12335;DHT22;6233;51.560;9.986;2022-10-22T18:18:55;14.90;99.90
12335;DHT22;6233;51.560;9.986;2022-10-22T18:21:57;14.90;99.90
12335;DHT22;6233;51.560;9.986;2022-10-22T18:24:59;14.90;99.90
12335;DHT22;6233;51.560;9.986;2022-10-22T18:28:01;14.80;99.90
12335;DHT22;6233;51.560;9.986;2022-10-22T18:31:07;14.70;99.90
12335;DHT22;6233;51.560;9.986;2022-10-22T18:34:09;14.70;99.90
12335;DHT22;6233;51.560;9.986;2022-10-22T18:37:11;14.70;99.90
12335;DHT22;6233;51.560;9.986;2022-10-22T18:40:12;14.70;99.90
12335;DHT22;6233;51.560;9.986;2022-10-22T18:43:16;14.60;99.90
12335;DHT22;6233;51.560;9.986;2022-10-22T18:46:18;14.70;99.90
12335;DHT22;6233;51.560;9.986;2022-10-22T18:49:20;14.60;99.90
12335;DHT22;6233;51.560;9.986;2022-10-22T18:52:22;14.60;99.90
12335;DHT22;6233;51.560;9.986;2022-10-22T18:55:27;14.50;99.90
12335;DHT22;6233;51.560;9.986;2022-10-22T18:58:29;14.50;99.90
12335;DHT22;6233;51.560;9.986;2022-10-22T19:01:31;14.50;99.90
12335;DHT22;6233;51.560;9.986;2022-10-22T19:04:36;14.40;99.90
12335;DHT22;6233;51.560;9.986;2022-10-22T19:07:37;14.40;99.90
12335;DHT22;6233;51.560;9.986;2022-10-22T19:10:44;14.30;99.90
12335;DHT22;6233;51.560;9.986;2022-10-22T19:13:46;14.30;99.90
12335;DHT22;6233;51.560;9.986;2022-10-22T19:16:48;14.10;99.90
12335;DHT22;6233;51.560;9.986;2022-10-22T19:19:52;14.30;99.90
12335;DHT22;6233;51.560;9.986;2022-10-22T19:22:54;14.20;99.90
12335;DHT22;6233;51.560;9.986;2022-10-22T19:26:11;14.20;99.90
12335;DHT22;6233;51.560;9.986;2022-10-22T19:29:20;14.10;99.90
12335;DHT22;6233;51.560;9.986;2022-10-22T19:32:22;14.00;99.90
12335;DHT22;6233;51.560;9.986;2022-10-22T19:35:28;14.00;99.90
12335;DHT22;6233;51.560;9.986;2022-10-22T19:38:30;13.90;99.90
12335;DHT22;6233;51.560;9.986;2022-10-22T19:41:32;14.00;99.90
12335;DHT22;6233;51.560;9.986;2022-10-22T19:44:34;13.90;99.90
12335;DHT22;6233;51.560;9.986;2022-10-22T19:47:36;13.90;99.90
12335;DHT22;6233;51.560;9.986;2022-10-22T19:50:37;13.80;99.90
12335;DHT22;6233;51.560;9.986;2022-10-22T19:53:39;13.80;99.90
12335;DHT22;6233;51.560;9.986;2022-10-22T19:56:45;13.70;99.90
12335;DHT22;6233;51.560;9.986;2022-10-22T19:59:46;13.70;99.90
12335;DHT22;6233;51.560;9.986;2022-10-22T20:02:52;13.80;99.90
12335;DHT22;6233;51.560;9.986;2022-10-22T20:05:55;13.80;99.90
12335;DHT22;6233;51.560;9.986;2022-10-22T20:09:02;13.80;99.90
12335;DHT22;6233;51.560;9.986;2022-10-22T20:12:04;13.70;99.90
12335;DHT22;6233;51.560;9.986;2022-10-22T20:15:07;13.70;99.90
12335;DHT22;6233;51.560;9.986;2022-10-22T20:18:09;13.70;99.90
12335;DHT22;6233;51.560;9.986;2022-10-22T20:21:13;13.70;99.90
12335;DHT22;6233;51.560;9.986;2022-10-22T20:24:15;13.70;99.90
12335;DHT22;6233;51.560;9.986;2022-10-22T20:27:17;13.60;99.90
12335;DHT22;6233;51.560;9.986;2022-10-22T20:30:19;13.60;99.90
12335;DHT22;6233;51.560;9.986;2022-10-22T20:33:22;13.60;99.90
12335;DHT22;6233;51.560;9.986;2022-10-22T20:36:24;13.60;99.90
12335;DHT22;6233;51.560;9.986;2022-10-22T20:39:26;13.50;99.90
12335;DHT22;6233;51.560;9.986;2022-10-22T20:42:28;13.50;99.90
12335;DHT22;6233;51.560;9.986;2022-10-22T20:45:35;13.50;99.90
12335;DHT22;6233;51.560;9.986;2022-10-22T20:48:37;13.40;99.90
12335;DHT22;6233;51.560;9.986;2022-10-22T20:51:39;13.40;99.90
12335;DHT22;6233;51.560;9.986;2022-10-22T20:54:41;13.40;99.90
12335;DHT22;6233;51.560;9.986;2022-10-22T20:57:44;13.40;99.90
12335;DHT22;6233;51.560;9.986;2022-10-22T21:00:46;13.30;99.90
12335;DHT22;6233;51.560;9.986;2022-10-22T21:03:50;13.30;99.90
12335;DHT22;6233;51.560;9.986;2022-10-22T21:06:52;13.30;99.90
12335;DHT22;6233;51.560;9.986;2022-10-22T21:09:54;13.30;99.90
12335;DHT22;6233;51.560;9.986;2022-10-22T21:12:56;13.20;99.90
12335;DHT22;6233;51.560;9.986;2022-10-22T21:15:58;13.20;99.90
12335;DHT22;6233;51.560;9.986;2022-10-22T21:19:00;13.20;99.90